createdAt,value
2018-09-14T00:01:10.157Z,18.20
2018-09-14T00:04:34.813Z,18.20
2018-09-14T00:07:59.516Z,18.30
2018-09-14T00:11:24.178Z,18.20
2018-09-14T00:14:48.883Z,18.50
2018-09-14T00:18:13.579Z,18.90
2018-09-14T00:21:38.270Z,18.90
2018-09-14T00:25:02.908Z,18.70
2018-09-14T00:28:28.585Z,18.90
2018-09-14T00:31:53.257Z,19.20
2018-09-14T00:35:18.033Z,19.10
2018-09-14T00:38:42.711Z,19.10
2018-09-14T00:42:07.471Z,18.90
2018-09-14T00:45:32.173Z,18.70
2018-09-14T00:48:57.915Z,19.00
2018-09-14T00:52:22.544Z,18.50
2018-09-14T00:55:47.302Z,18.30
2018-09-14T00:59:12.030Z,18.30
2018-09-14T01:02:36.814Z,18.10
2018-09-14T01:06:01.460Z,18.20
2018-09-14T01:09:28.223Z,18.10
2018-09-14T01:12:52.869Z,18.20
2018-09-14T01:16:17.539Z,18.20
2018-09-14T01:19:42.163Z,18.20
2018-09-14T01:23:06.863Z,18.20
2018-09-14T01:26:31.600Z,18.30
2018-09-14T01:29:56.899Z,18.40
2018-09-14T01:33:22.167Z,18.30
2018-09-14T01:36:46.856Z,18.00
2018-09-14T01:40:11.517Z,18.30
2018-09-14T01:43:36.183Z,18.40
2018-09-14T01:47:00.821Z,18.30
2018-09-14T01:50:25.549Z,18.10
2018-09-14T01:53:50.247Z,17.90
2018-09-14T01:57:14.983Z,18.10
2018-09-14T02:00:39.647Z,18.40
2018-09-14T02:04:04.365Z,18.40
2018-09-14T02:07:29.030Z,18.70
2018-09-14T02:10:53.786Z,18.60
2018-09-14T02:14:18.479Z,18.70
2018-09-14T02:17:43.224Z,18.60
2018-09-14T02:21:07.879Z,18.40
2018-09-14T02:24:32.621Z,18.50
2018-09-14T02:27:58.060Z,18.20
2018-09-14T02:31:22.859Z,18.10
2018-09-14T02:34:47.523Z,18.20
2018-09-14T02:38:12.239Z,18.00
2018-09-14T02:41:37.145Z,18.00
2018-09-14T02:45:01.891Z,18.10
2018-09-14T02:48:26.635Z,18.30
2018-09-14T02:51:51.339Z,18.30
2018-09-14T02:55:16.199Z,18.00
2018-09-14T02:58:40.939Z,18.10
2018-09-14T03:02:05.237Z,18.20
2018-09-14T03:05:29.909Z,18.00
2018-09-14T03:08:54.583Z,18.10
2018-09-14T03:12:19.270Z,18.20
2018-09-14T03:15:43.947Z,18.30
2018-09-14T03:19:08.618Z,18.00
2018-09-14T03:22:33.347Z,18.10
2018-09-14T03:25:58.038Z,18.30
2018-09-14T03:29:22.826Z,18.00
2018-09-14T03:32:47.527Z,18.60
2018-09-14T03:36:12.170Z,18.10
2018-09-14T03:39:36.887Z,18.40
2018-09-14T03:43:01.582Z,17.90
2018-09-14T03:46:26.273Z,18.30
2018-09-14T03:49:51.059Z,18.30
2018-09-14T03:53:15.717Z,18.10
2018-09-14T03:56:40.501Z,18.10
2018-09-14T04:00:05.293Z,18.00
2018-09-14T04:03:29.983Z,18.20
2018-09-14T04:06:54.714Z,18.20
2018-09-14T04:10:19.398Z,18.00
2018-09-14T04:13:44.050Z,18.10
2018-09-14T04:17:08.740Z,18.00
2018-09-14T04:20:33.480Z,18.10
2018-09-14T04:23:58.323Z,18.00
2018-09-14T04:27:23.010Z,17.80
2018-09-14T04:30:47.864Z,18.00
2018-09-14T04:34:12.521Z,19.00
2018-09-14T04:37:37.181Z,18.60
2018-09-14T04:41:01.889Z,18.30
2018-09-14T04:44:26.576Z,18.30
2018-09-14T04:47:51.249Z,18.30
2018-09-14T04:51:16.018Z,18.40
2018-09-14T04:54:40.647Z,18.40
2018-09-14T04:58:05.605Z,18.40
2018-09-14T05:01:30.330Z,18.30
2018-09-14T05:04:55.191Z,18.10
2018-09-14T05:08:20.184Z,18.20
2018-09-14T05:11:45.187Z,18.20
2018-09-14T05:15:09.928Z,17.90
2018-09-14T05:18:34.649Z,18.00
2018-09-14T05:21:59.393Z,18.70
2018-09-14T05:25:24.116Z,18.80
2018-09-14T05:28:48.880Z,18.40
2018-09-14T05:32:13.587Z,18.20
2018-09-14T05:37:02.734Z,17.80
2018-09-14T05:40:27.410Z,17.50
2018-09-14T05:43:52.057Z,17.50
2018-09-14T05:47:16.788Z,17.80
2018-09-14T05:50:41.454Z,17.70
2018-09-14T05:54:06.160Z,17.70
2018-09-14T05:57:30.897Z,17.80
2018-09-14T06:00:55.699Z,17.50
2018-09-14T06:04:20.370Z,17.60
2018-09-14T06:07:45.042Z,17.40
2018-09-14T06:11:09.814Z,17.40
2018-09-14T06:14:34.793Z,17.50
2018-09-14T06:17:59.442Z,17.50
2018-09-14T06:21:24.086Z,17.70
2018-09-14T06:24:48.791Z,17.80
2018-09-14T06:28:13.534Z,17.60
2018-09-14T06:31:38.341Z,17.90
2018-09-14T06:35:03.036Z,17.80
2018-09-14T06:38:27.681Z,17.50
2018-09-14T06:41:52.435Z,17.50
2018-09-14T06:45:17.188Z,17.70
2018-09-14T06:48:41.896Z,17.70
2018-09-14T06:52:06.796Z,17.60
2018-09-14T06:55:31.495Z,18.10
2018-09-14T06:58:56.167Z,18.30
2018-09-14T07:02:22.996Z,18.30
2018-09-14T07:05:47.718Z,18.20
2018-09-14T07:09:12.450Z,18.00
2018-09-14T07:12:37.120Z,18.00
2018-09-14T07:16:01.870Z,18.10
2018-09-14T07:19:26.681Z,18.00
2018-09-14T07:22:52.544Z,18.00
2018-09-14T07:26:17.386Z,18.20
2018-09-14T07:29:42.128Z,18.40
2018-09-14T07:33:06.972Z,18.40
2018-09-14T07:36:31.772Z,18.30
2018-09-14T07:39:56.500Z,18.30
2018-09-14T07:43:21.253Z,18.40
2018-09-14T07:46:46.004Z,18.60
2018-09-14T07:50:10.702Z,18.60
2018-09-14T07:53:35.519Z,18.70
2018-09-14T07:57:00.147Z,18.70
2018-09-14T08:00:24.846Z,19.20
2018-09-14T08:03:49.604Z,19.00
2018-09-14T08:07:14.414Z,18.80
2018-09-14T08:10:39.253Z,18.60
2018-09-14T08:14:04.149Z,18.50
2018-09-14T08:17:29.978Z,18.50
2018-09-14T08:20:54.795Z,18.70
2018-09-14T08:24:19.478Z,18.50
2018-09-14T08:27:44.234Z,18.60
2018-09-14T08:31:08.988Z,18.60
2018-09-14T08:34:33.883Z,18.80
2018-09-14T08:37:58.508Z,18.90
2018-09-14T08:41:23.248Z,19.20
2018-09-14T08:44:47.906Z,19.20
2018-09-14T08:48:12.620Z,19.30
2018-09-14T08:51:37.345Z,19.40
2018-09-14T08:55:02.016Z,19.60
2018-09-14T08:58:26.657Z,19.60
2018-09-14T09:01:51.346Z,19.70
2018-09-14T09:05:16.014Z,19.80
2018-09-14T09:08:40.678Z,19.70
2018-09-14T09:12:05.414Z,19.80
2018-09-14T09:15:30.178Z,19.80
2018-09-14T09:18:54.879Z,20.20
2018-09-14T09:22:19.649Z,20.30
2018-09-14T09:25:44.370Z,20.40
2018-09-14T09:29:09.049Z,20.30
2018-09-14T09:32:33.846Z,20.40
2018-09-14T09:35:58.507Z,20.30
2018-09-14T09:39:23.276Z,20.20
2018-09-14T09:42:47.998Z,20.30
2018-09-14T09:46:12.799Z,20.10
2018-09-14T09:49:37.604Z,20.10
2018-09-14T09:53:02.430Z,20.10
2018-09-14T09:57:51.610Z,20.30
2018-09-14T10:01:21.661Z,20.50
2018-09-14T10:05:53.087Z,20.70
2018-09-14T10:09:17.756Z,20.70
2018-09-14T10:12:42.417Z,20.90
2018-09-14T10:16:07.150Z,21.00
2018-09-14T10:19:31.814Z,20.80
2018-09-14T10:22:56.472Z,20.90
2018-09-14T10:26:21.277Z,20.90
2018-09-14T10:29:46.001Z,20.90
2018-09-14T10:33:10.757Z,21.00
2018-09-14T10:36:35.503Z,21.10
2018-09-14T10:40:00.175Z,21.10
2018-09-14T10:43:24.884Z,21.00
2018-09-14T10:46:49.589Z,20.90
2018-09-14T10:50:14.519Z,20.70
2018-09-14T10:53:39.295Z,20.80
2018-09-14T10:57:04.359Z,21.10
2018-09-14T11:00:28.983Z,21.10
2018-09-14T11:03:53.741Z,21.00
2018-09-14T11:07:18.450Z,21.10
2018-09-14T11:10:43.713Z,21.30
2018-09-14T11:14:08.716Z,21.10
2018-09-14T11:17:33.339Z,21.40
2018-09-14T11:20:57.976Z,21.80
2018-09-14T11:24:22.762Z,22.10
2018-09-14T11:27:48.168Z,22.40
2018-09-14T11:31:12.820Z,22.50
2018-09-14T11:34:37.477Z,22.30
2018-09-14T11:38:02.309Z,22.00
2018-09-14T11:41:27.090Z,21.80
2018-09-14T11:44:53.132Z,21.70
2018-09-14T11:48:18.023Z,21.90
2018-09-14T11:57:38.688Z,22.00
2018-09-14T12:01:05.790Z,22.30
2018-09-14T12:04:30.534Z,22.70
2018-09-14T12:07:55.394Z,22.80
2018-09-14T12:11:20.124Z,22.90
2018-09-14T12:14:44.830Z,22.60
2018-09-14T12:18:09.448Z,22.80
2018-09-14T12:21:34.150Z,22.80
2018-09-14T12:24:58.822Z,23.10
2018-09-14T12:28:23.554Z,23.20
2018-09-14T12:31:48.480Z,23.20
2018-09-14T12:35:13.120Z,23.20
2018-09-14T12:38:37.780Z,23.20
2018-09-14T12:42:02.418Z,22.90
2018-09-14T12:45:27.119Z,22.70
2018-09-14T12:48:51.979Z,23.00
2018-09-14T12:52:16.665Z,23.10
2018-09-14T12:55:41.312Z,23.40
2018-09-14T12:59:05.972Z,23.50
2018-09-14T13:02:30.668Z,23.70
2018-09-14T13:05:56.083Z,23.80
2018-09-14T13:09:21.965Z,23.80
2018-09-14T13:12:46.680Z,23.80
2018-09-14T13:16:11.330Z,23.70
2018-09-14T13:19:35.986Z,23.80
2018-09-14T13:23:00.665Z,23.80
2018-09-14T13:26:25.406Z,23.50
2018-09-14T13:29:50.147Z,23.50
2018-09-14T13:33:14.789Z,23.40
2018-09-14T13:36:39.466Z,23.20
2018-09-14T13:40:04.205Z,23.40
2018-09-14T13:43:28.890Z,23.40
2018-09-14T13:46:53.470Z,23.40
2018-09-14T13:50:18.148Z,23.20
2018-09-14T13:53:43.839Z,23.10
2018-09-14T13:57:08.450Z,23.10
2018-09-14T14:00:33.125Z,23.30
2018-09-14T14:03:57.796Z,23.20
2018-09-14T14:07:23.567Z,23.30
2018-09-14T14:10:48.770Z,23.40
2018-09-14T14:14:13.836Z,23.40
2018-09-14T14:17:39.405Z,23.50
2018-09-14T14:21:05.590Z,23.60
2018-09-14T14:24:30.434Z,23.60
2018-09-14T14:27:55.214Z,23.60
2018-09-14T14:31:19.989Z,23.70
2018-09-14T14:34:44.653Z,23.70
2018-09-14T14:38:09.343Z,23.40
2018-09-14T14:41:34.037Z,23.20
2018-09-14T14:44:58.764Z,23.20
2018-09-14T14:48:23.562Z,23.30
2018-09-14T14:51:48.294Z,23.10
2018-09-14T14:55:14.250Z,23.20
2018-09-14T14:58:38.897Z,23.30
2018-09-14T15:02:03.523Z,23.30
2018-09-14T15:05:28.286Z,23.40
2018-09-14T15:08:53.113Z,23.50
2018-09-14T15:12:18.864Z,23.50
2018-09-14T15:15:43.557Z,23.40
2018-09-14T15:19:08.314Z,23.40
2018-09-14T15:22:32.938Z,23.50
2018-09-14T15:25:57.628Z,23.60
2018-09-14T15:29:22.294Z,23.50
2018-09-14T15:32:46.954Z,23.50
2018-09-14T15:36:11.655Z,23.40
2018-09-14T15:39:36.372Z,23.50
2018-09-14T15:43:02.106Z,23.30
2018-09-14T15:46:26.865Z,23.30
2018-09-14T15:49:51.496Z,23.00
2018-09-14T15:53:16.213Z,23.00
2018-09-14T15:56:40.923Z,23.10
2018-09-14T16:00:06.604Z,23.10
2018-09-14T16:03:31.304Z,23.30
2018-09-14T16:06:56.012Z,23.40
2018-09-14T16:10:20.734Z,23.50
2018-09-14T16:13:45.346Z,23.70
2018-09-14T16:17:10.174Z,23.80
2018-09-14T16:21:59.233Z,23.70
2018-09-14T16:25:24.140Z,23.20
2018-09-14T16:28:48.840Z,23.00
2018-09-14T16:32:13.518Z,22.90
2018-09-14T16:35:38.170Z,22.70
2018-09-14T16:39:02.925Z,22.50
2018-09-14T16:42:27.662Z,22.30
2018-09-14T16:45:52.330Z,22.30
2018-09-14T16:49:25.324Z,22.30
2018-09-14T16:52:50.011Z,22.30
2018-09-14T16:56:14.746Z,22.10
2018-09-14T16:59:39.565Z,22.20
2018-09-14T17:03:04.274Z,22.00
2018-09-14T17:06:28.980Z,22.00
2018-09-14T17:09:54.624Z,21.90
2018-09-14T17:13:19.320Z,21.90
2018-09-14T17:16:44.087Z,21.70
2018-09-14T17:20:08.875Z,21.70
2018-09-14T17:23:33.604Z,21.60
2018-09-14T17:26:58.379Z,21.60
2018-09-14T17:30:23.198Z,21.60
2018-09-14T17:33:47.907Z,21.50
2018-09-14T17:37:12.645Z,21.40
2018-09-14T17:40:37.411Z,21.50
2018-09-14T17:44:03.325Z,21.50
2018-09-14T17:47:28.017Z,21.30
2018-09-14T17:50:52.845Z,21.20
2018-09-14T17:54:17.592Z,21.20
2018-09-14T17:57:42.533Z,21.20
2018-09-14T18:01:07.601Z,21.10
2018-09-14T18:08:08.019Z,21.10
2018-09-14T18:11:32.880Z,21.10
2018-09-14T18:14:57.859Z,21.00
2018-09-14T18:18:22.576Z,21.20
2018-09-14T18:21:47.317Z,21.00
2018-09-14T18:25:12.012Z,21.00
2018-09-14T18:28:36.846Z,21.10
2018-09-14T18:32:02.811Z,20.80
2018-09-14T18:35:27.795Z,20.70
2018-09-14T18:38:53.179Z,20.70
2018-09-14T18:42:18.115Z,20.70
2018-09-14T18:45:42.803Z,20.80
2018-09-14T18:49:08.278Z,20.80
2018-09-14T18:52:33.086Z,20.70
2018-09-14T18:55:57.811Z,20.70
2018-09-14T18:59:22.710Z,20.60
2018-09-14T19:02:47.475Z,20.70
2018-09-14T19:06:13.755Z,20.50
2018-09-14T19:09:38.426Z,20.40
2018-09-14T19:13:03.255Z,20.40
2018-09-14T19:16:28.065Z,20.40
2018-09-14T19:19:52.963Z,20.40
2018-09-14T19:23:17.640Z,20.30
2018-09-14T19:26:42.471Z,20.40
2018-09-14T19:30:07.199Z,20.50
2018-09-14T19:33:31.974Z,20.30
2018-09-14T19:36:56.712Z,20.20
2018-09-14T19:40:21.432Z,20.30
2018-09-14T19:43:46.138Z,20.30
2018-09-14T19:47:10.953Z,20.30
2018-09-14T19:50:35.668Z,20.40
2018-09-14T19:54:00.369Z,20.50
2018-09-14T19:57:25.104Z,20.40
2018-09-14T20:00:50.110Z,20.20
2018-09-14T20:04:14.810Z,20.20
2018-09-14T20:07:39.482Z,20.10
2018-09-14T20:11:04.218Z,20.30
2018-09-14T20:14:28.986Z,20.30
2018-09-14T20:17:53.752Z,20.20
2018-09-14T20:21:18.384Z,20.30
2018-09-14T20:24:43.192Z,20.30
2018-09-14T20:28:07.894Z,20.20
2018-09-14T20:31:32.619Z,20.10
2018-09-14T20:34:57.358Z,20.00
2018-09-14T20:38:22.055Z,19.90
2018-09-14T20:41:47.004Z,19.90
2018-09-14T20:45:11.714Z,19.80
2018-09-14T20:48:36.570Z,19.90
2018-09-14T20:52:03.002Z,20.00
2018-09-14T20:55:29.387Z,19.90
2018-09-14T20:58:55.830Z,19.80
2018-09-14T21:02:22.167Z,19.70
2018-09-14T21:05:48.297Z,19.60
2018-09-14T21:09:13.865Z,19.50
2018-09-14T21:12:38.977Z,19.60
2018-09-14T21:16:04.197Z,19.70
2018-09-14T21:19:29.318Z,19.70
2018-09-14T21:22:54.430Z,19.90
2018-09-14T21:26:19.892Z,19.80
2018-09-14T21:29:45.145Z,19.80
2018-09-14T21:33:10.314Z,19.70
2018-09-14T21:36:36.920Z,19.80
2018-09-14T21:40:02.236Z,19.80
2018-09-14T21:43:27.476Z,19.70
2018-09-14T21:46:52.721Z,19.70
2018-09-14T21:50:18.185Z,19.70
2018-09-14T21:53:43.713Z,19.60
2018-09-14T21:57:09.428Z,19.70
2018-09-14T22:00:39.834Z,19.80
2018-09-14T22:04:04.991Z,19.90
2018-09-14T22:07:30.536Z,19.90
2018-09-14T22:10:56.045Z,19.80
2018-09-14T22:14:21.260Z,19.80
2018-09-14T22:17:47.032Z,19.70
2018-09-14T22:21:12.693Z,19.80
2018-09-14T22:24:37.650Z,19.80
2018-09-14T22:28:02.339Z,19.60
2018-09-14T22:31:27.071Z,19.70
2018-09-14T22:34:51.758Z,19.70
2018-09-14T22:38:16.477Z,19.60
2018-09-14T22:41:41.296Z,19.40
2018-09-14T22:45:06.310Z,19.50
2018-09-14T22:48:30.942Z,19.20
2018-09-14T22:51:55.745Z,19.30
2018-09-14T22:55:20.430Z,19.10
2018-09-14T22:58:45.065Z,19.00
2018-09-14T23:02:09.814Z,19.00
2018-09-14T23:05:34.471Z,18.90
2018-09-14T23:08:59.108Z,18.90
2018-09-14T23:12:23.740Z,19.00
2018-09-14T23:15:59.973Z,19.00
2018-09-14T23:19:24.620Z,19.00
2018-09-14T23:22:49.363Z,19.00
2018-09-14T23:26:17.610Z,18.80
2018-09-14T23:29:42.299Z,18.80
2018-09-14T23:33:06.942Z,18.90
2018-09-14T23:36:31.626Z,19.10
2018-09-14T23:39:56.270Z,18.90
2018-09-14T23:43:20.944Z,19.00
2018-09-14T23:46:46.626Z,18.80
2018-09-14T23:50:11.263Z,18.80
2018-09-14T23:53:35.903Z,18.80
2018-09-14T23:57:00.566Z,18.90
